createdAt,value
2022-12-18T00:00:52.077Z,102542.00
2022-12-18T00:03:24.716Z,102548.00
2022-12-18T00:05:55.991Z,102547.00
2022-12-18T00:08:26.060Z,102551.00
2022-12-18T00:10:55.927Z,102562.00
2022-12-18T00:13:31.514Z,102560.00
2022-12-18T00:16:06.444Z,102561.00
2022-12-18T00:18:39.176Z,102562.00
2022-12-18T00:21:12.637Z,102567.00
2022-12-18T00:23:44.809Z,102566.00
2022-12-18T00:26:20.584Z,102581.00
2022-12-18T00:28:50.746Z,102582.00
2022-12-18T00:31:24.089Z,102564.00
2022-12-18T00:33:57.795Z,102564.00
2022-12-18T00:36:29.893Z,102562.00
2022-12-18T00:39:01.534Z,102556.00
2022-12-18T00:41:44.908Z,102554.00
2022-12-18T00:44:18.309Z,102548.00
2022-12-18T00:46:49.721Z,102552.00
2022-12-18T00:49:23.708Z,102554.00
2022-12-18T00:51:53.731Z,102570.00
2022-12-18T00:54:23.632Z,102561.00
2022-12-18T00:56:53.449Z,102556.00
2022-12-18T00:59:23.553Z,102549.00
2022-12-18T01:01:53.524Z,102549.00
2022-12-18T01:04:26.065Z,102549.00
2022-12-18T01:06:56.722Z,102549.00
2022-12-18T01:09:26.716Z,102547.00
2022-12-18T01:11:56.545Z,102551.00
2022-12-18T01:14:26.366Z,102558.00
2022-12-18T01:16:56.238Z,102558.00
2022-12-18T01:19:28.777Z,102557.00
2022-12-18T01:21:58.610Z,102563.00
2022-12-18T01:24:28.934Z,102563.00
2022-12-18T01:26:59.017Z,102550.00
2022-12-18T01:29:28.858Z,102570.00
2022-12-18T01:32:00.120Z,102578.00
2022-12-18T01:34:32.629Z,102561.00
2022-12-18T01:37:02.603Z,102581.00
2022-12-18T01:39:32.930Z,102579.00
2022-12-18T01:42:08.867Z,102581.00
2022-12-18T01:45:06.507Z,102582.00
2022-12-18T01:47:41.945Z,102581.00
2022-12-18T01:50:19.681Z,102584.00
2022-12-18T01:52:54.101Z,102576.00
2022-12-18T01:55:28.685Z,102578.00
2022-12-18T01:58:01.619Z,102574.00
2022-12-18T02:00:32.858Z,102587.00
2022-12-18T02:03:02.782Z,102588.00
2022-12-18T02:05:47.374Z,102580.00
2022-12-18T02:08:24.477Z,102573.00
2022-12-18T02:11:06.229Z,102575.00
2022-12-18T02:13:45.689Z,102580.00
2022-12-18T02:16:27.783Z,102581.00
2022-12-18T02:19:04.618Z,102582.00
2022-12-18T02:21:53.717Z,102581.00
2022-12-18T02:24:39.268Z,102580.00
2022-12-18T02:27:13.840Z,102586.00
2022-12-18T02:29:51.658Z,102582.00
2022-12-18T02:32:29.741Z,102585.00
2022-12-18T02:35:02.781Z,102598.00
2022-12-18T02:37:34.493Z,102600.00
2022-12-18T02:40:08.641Z,102603.00
2022-12-18T02:42:41.155Z,102604.00
2022-12-18T02:45:12.205Z,102605.00
2022-12-18T02:47:48.457Z,102610.00
2022-12-18T02:50:25.964Z,102599.00
2022-12-18T02:53:08.001Z,102621.00
2022-12-18T02:55:52.746Z,102618.00
2022-12-18T02:58:34.535Z,102617.00
2022-12-18T03:01:11.310Z,102628.00
2022-12-18T03:03:47.097Z,102619.00
2022-12-18T03:06:24.927Z,102623.00
2022-12-18T03:09:02.550Z,102630.00
2022-12-18T03:11:50.350Z,102623.00
2022-12-18T03:14:25.338Z,102631.00
2022-12-18T03:16:58.721Z,102649.00
2022-12-18T03:19:32.323Z,102639.00
2022-12-18T03:22:06.052Z,102634.00
2022-12-18T03:24:39.969Z,102628.00
2022-12-18T03:27:14.330Z,102639.00
2022-12-18T03:29:50.127Z,102649.00
2022-12-18T03:32:28.767Z,102641.00
2022-12-18T03:35:02.212Z,102629.00
2022-12-18T03:37:35.403Z,102634.00
2022-12-18T03:40:06.009Z,102623.00
2022-12-18T03:42:49.632Z,102622.00
2022-12-18T03:45:30.341Z,102621.00
2022-12-18T03:48:06.683Z,102621.00
2022-12-18T03:50:44.797Z,102633.00
2022-12-18T03:53:29.583Z,102629.00
2022-12-18T03:56:00.813Z,102630.00
2022-12-18T03:58:32.541Z,102629.00
2022-12-18T04:01:09.537Z,102631.00
2022-12-18T04:03:41.255Z,102625.00
2022-12-18T04:06:12.285Z,102634.00
2022-12-18T04:08:42.962Z,102628.00
2022-12-18T04:11:13.033Z,102641.00
2022-12-18T04:13:43.455Z,102633.00
2022-12-18T04:16:16.169Z,102634.00
2022-12-18T04:18:46.064Z,102634.00
2022-12-18T04:21:16.061Z,102641.00
2022-12-18T04:23:45.896Z,102645.00
2022-12-18T04:26:15.811Z,102648.00
2022-12-18T04:28:45.709Z,102644.00
2022-12-18T04:31:18.201Z,102642.00
2022-12-18T04:33:48.058Z,102650.00
2022-12-18T04:36:18.197Z,102653.00
2022-12-18T04:38:48.118Z,102662.00
2022-12-18T04:41:18.027Z,102661.00
2022-12-18T04:43:47.891Z,102655.00
2022-12-18T04:46:20.331Z,102651.00
2022-12-18T04:48:50.873Z,102655.00
2022-12-18T04:51:26.184Z,102663.00
2022-12-18T04:53:56.678Z,102666.00
2022-12-18T04:56:26.889Z,102670.00
2022-12-18T04:58:56.902Z,102669.00
2022-12-18T05:01:34.342Z,102680.00
2022-12-18T05:04:04.803Z,102673.00
2022-12-18T05:06:34.839Z,102667.00
2022-12-18T05:09:04.744Z,102659.00
2022-12-18T05:11:35.864Z,102671.00
2022-12-18T05:14:05.726Z,102667.00
2022-12-18T05:16:38.126Z,102672.00
2022-12-18T05:19:07.983Z,102670.00
2022-12-18T05:21:37.815Z,102675.00
2022-12-18T05:24:08.841Z,102674.00
2022-12-18T05:26:38.724Z,102679.00
2022-12-18T05:29:09.065Z,102690.00
2022-12-18T05:31:42.787Z,102695.00
2022-12-18T05:34:13.407Z,102695.00
2022-12-18T05:36:43.560Z,102682.00
2022-12-18T05:39:14.478Z,102692.00
2022-12-18T05:41:44.506Z,102697.00
2022-12-18T05:44:14.355Z,102693.00
2022-12-18T05:46:46.929Z,102693.00
2022-12-18T05:49:16.788Z,102703.00
2022-12-18T05:51:47.002Z,102708.00
2022-12-18T05:54:16.835Z,102722.00
2022-12-18T05:56:48.821Z,102717.00
2022-12-18T05:59:18.981Z,102716.00
2022-12-18T06:01:51.536Z,102721.00
2022-12-18T06:04:21.475Z,102721.00
2022-12-18T06:06:51.438Z,102716.00
2022-12-18T06:09:21.304Z,102717.00
2022-12-18T06:11:51.170Z,102719.00
2022-12-18T06:14:21.032Z,102731.00
2022-12-18T06:16:54.987Z,102728.00
2022-12-18T06:19:25.011Z,102733.00
2022-12-18T06:21:54.834Z,102733.00
2022-12-18T06:24:24.670Z,102736.00
2022-12-18T06:26:54.519Z,102744.00
2022-12-18T06:29:24.502Z,102735.00
2022-12-18T06:31:56.984Z,102737.00
2022-12-18T06:34:26.935Z,102745.00
2022-12-18T06:36:56.790Z,102765.00
2022-12-18T06:39:26.701Z,102766.00
2022-12-18T06:41:56.581Z,102765.00
2022-12-18T06:44:26.701Z,102765.00
2022-12-18T06:46:59.530Z,102774.00
2022-12-18T06:49:30.778Z,102778.00
2022-12-18T06:52:00.749Z,102779.00
2022-12-18T06:54:30.570Z,102775.00
2022-12-18T06:57:00.458Z,102782.00
2022-12-18T06:59:30.294Z,102762.00
2022-12-18T07:02:02.847Z,102775.00
2022-12-18T07:04:33.458Z,102774.00
2022-12-18T07:07:03.286Z,102792.00
2022-12-18T07:09:33.150Z,102796.00
2022-12-18T07:12:02.999Z,102791.00
2022-12-18T07:14:32.849Z,102780.00
2022-12-18T07:17:05.343Z,102785.00
2022-12-18T07:19:36.496Z,102786.00
2022-12-18T07:22:06.461Z,102776.00
2022-12-18T07:24:37.065Z,102776.00
2022-12-18T07:27:07.170Z,102783.00
2022-12-18T07:29:37.916Z,102793.00
2022-12-18T07:32:11.395Z,102797.00
2022-12-18T07:34:42.489Z,102799.00
2022-12-18T07:37:12.322Z,102794.00
2022-12-18T07:39:42.181Z,102794.00
2022-12-18T07:42:24.564Z,102787.00
2022-12-18T07:44:54.840Z,102792.00
2022-12-18T07:47:27.738Z,102774.00
2022-12-18T07:49:59.170Z,102792.00
2022-12-18T07:52:29.631Z,102792.00
2022-12-18T07:54:59.473Z,102789.00
2022-12-18T08:00:20.280Z,102778.00
2022-12-18T08:02:54.406Z,102794.00
2022-12-18T08:05:24.549Z,102800.00
2022-12-18T08:07:54.390Z,102804.00
2022-12-18T08:10:25.098Z,102796.00
2022-12-18T08:13:00.028Z,102787.00
2022-12-18T08:15:32.896Z,102797.00
2022-12-18T08:18:08.059Z,102794.00
2022-12-18T08:20:40.010Z,102800.00
2022-12-18T08:23:09.861Z,102787.00
2022-12-18T08:25:39.713Z,102791.00
2022-12-18T08:28:09.541Z,102777.00
2022-12-18T08:30:39.977Z,102787.00
2022-12-18T08:33:12.726Z,102790.00
2022-12-18T08:35:45.833Z,102788.00
2022-12-18T08:38:16.054Z,102803.00
2022-12-18T08:40:46.258Z,102800.00
2022-12-18T08:43:28.964Z,102802.00
2022-12-18T08:45:59.307Z,102798.00
2022-12-18T08:48:33.189Z,102800.00
2022-12-18T08:51:03.799Z,102801.00
2022-12-18T08:53:36.204Z,102808.00
2022-12-18T08:56:06.170Z,102814.00
2022-12-18T08:58:36.028Z,102814.00
2022-12-18T09:01:08.291Z,102814.00
2022-12-18T09:03:41.373Z,102811.00
2022-12-18T09:06:12.396Z,102813.00
2022-12-18T09:08:42.693Z,102832.00
2022-12-18T09:11:17.968Z,102830.00
2022-12-18T09:13:47.817Z,102833.00
2022-12-18T09:16:17.821Z,102832.00
2022-12-18T09:18:50.542Z,102843.00
2022-12-18T09:21:23.073Z,102829.00
2022-12-18T09:23:54.047Z,102835.00
2022-12-18T09:26:24.286Z,102836.00
2022-12-18T09:28:54.249Z,102842.00
2022-12-18T09:31:27.217Z,102841.00
2022-12-18T09:33:59.948Z,102841.00
2022-12-18T09:36:29.972Z,102844.00
2022-12-18T09:39:03.725Z,102843.00
2022-12-18T09:41:46.190Z,102847.00
2022-12-18T09:44:25.207Z,102843.00
2022-12-18T09:47:06.325Z,102848.00
2022-12-18T09:49:44.439Z,102841.00
2022-12-18T09:52:21.139Z,102839.00
2022-12-18T09:54:57.455Z,102827.00
2022-12-18T09:57:28.884Z,102827.00
2022-12-18T10:00:08.121Z,102817.00
2022-12-18T10:02:38.046Z,102811.00
2022-12-18T10:05:18.024Z,102815.00
2022-12-18T10:07:57.670Z,102817.00
2022-12-18T10:10:38.618Z,102798.00
2022-12-18T10:13:24.627Z,102797.00
2022-12-18T10:16:07.382Z,102787.00
2022-12-18T10:19:02.807Z,102780.00
2022-12-18T10:21:39.905Z,102772.00
2022-12-18T10:24:22.255Z,102779.00
2022-12-18T10:26:52.233Z,102786.00
2022-12-18T10:29:22.935Z,102790.00
2022-12-18T10:31:52.738Z,102790.00
2022-12-18T10:34:22.566Z,102788.00
2022-12-18T10:36:56.247Z,102787.00
2022-12-18T10:39:28.475Z,102789.00
2022-12-18T10:42:16.283Z,102775.00
2022-12-18T10:44:46.213Z,102778.00
2022-12-18T10:47:19.787Z,102771.00
2022-12-18T10:49:56.038Z,102769.00
2022-12-18T10:52:30.055Z,102775.00
2022-12-18T10:55:04.400Z,102754.00
2022-12-18T10:57:39.654Z,102745.00
2022-12-18T11:00:29.449Z,102749.00
2022-12-18T11:03:00.527Z,102737.00
2022-12-18T11:05:33.978Z,102742.00
2022-12-18T11:08:07.253Z,102736.00
2022-12-18T11:10:41.874Z,102737.00
2022-12-18T11:13:15.569Z,102738.00
2022-12-18T11:15:45.744Z,102754.00
2022-12-18T11:18:23.445Z,102754.00
2022-12-18T11:20:59.078Z,102748.00
2022-12-18T11:23:32.051Z,102754.00
2022-12-18T11:26:03.887Z,102739.00
2022-12-18T11:28:42.169Z,102732.00
2022-12-18T11:31:32.366Z,102729.00
2022-12-18T11:34:30.471Z,102733.00
2022-12-18T11:37:03.328Z,102743.00
2022-12-18T11:39:50.563Z,102738.00
2022-12-18T11:42:28.534Z,102737.00
2022-12-18T11:45:03.046Z,102736.00
2022-12-18T11:47:42.390Z,102735.00
2022-12-18T11:50:20.283Z,102750.00
2022-12-18T11:52:55.972Z,102751.00
2022-12-18T11:55:41.982Z,102761.00
2022-12-18T11:58:20.435Z,102747.00
2022-12-18T12:01:01.955Z,102748.00
2022-12-18T12:03:59.323Z,102748.00
2022-12-18T12:06:40.356Z,102751.00
2022-12-18T12:09:22.212Z,102758.00
2022-12-18T12:12:11.891Z,102747.00
2022-12-18T12:14:56.103Z,102752.00
2022-12-18T12:17:36.557Z,102758.00
2022-12-18T12:20:17.731Z,102761.00
2022-12-18T12:22:57.861Z,102764.00
2022-12-18T12:25:40.647Z,102765.00
2022-12-18T12:28:36.597Z,102765.00
2022-12-18T12:31:17.106Z,102771.00
2022-12-18T12:33:55.587Z,102774.00
2022-12-18T12:36:34.887Z,102767.00
2022-12-18T12:39:10.562Z,102780.00
2022-12-18T12:41:55.460Z,102778.00
2022-12-18T12:44:33.488Z,102783.00
2022-12-18T12:47:10.499Z,102788.00
2022-12-18T12:49:48.710Z,102798.00
2022-12-18T12:52:30.095Z,102794.00
2022-12-18T12:55:01.668Z,102798.00
2022-12-18T12:57:38.721Z,102788.00
2022-12-18T13:00:17.291Z,102786.00
2022-12-18T13:02:55.783Z,102780.00
2022-12-18T13:05:32.509Z,102778.00
2022-12-18T13:08:07.272Z,102765.00
2022-12-18T13:10:40.398Z,102749.00
2022-12-18T13:13:11.056Z,102747.00
2022-12-18T13:15:46.975Z,102742.00
2022-12-18T13:18:21.539Z,102745.00
2022-12-18T13:20:58.510Z,102736.00
2022-12-18T13:23:36.023Z,102738.00
2022-12-18T13:26:36.883Z,102730.00
2022-12-18T13:29:07.870Z,102742.00
2022-12-18T13:32:24.403Z,102751.00
2022-12-18T13:35:41.402Z,102759.00
2022-12-18T13:38:26.074Z,102774.00
2022-12-18T13:41:00.550Z,102756.00
2022-12-18T13:43:44.448Z,102762.00
2022-12-18T13:46:31.251Z,102756.00
2022-12-18T13:49:24.606Z,102765.00
2022-12-18T13:51:57.529Z,102745.00
2022-12-18T13:54:34.385Z,102748.00
2022-12-18T13:57:05.180Z,102736.00
2022-12-18T13:59:39.422Z,102729.00
2022-12-18T14:02:18.528Z,102717.00
2022-12-18T14:04:53.287Z,102713.00
2022-12-18T14:07:26.737Z,102717.00
2022-12-18T14:10:18.663Z,102708.00
2022-12-18T14:13:03.299Z,102711.00
2022-12-18T14:15:37.898Z,102720.00
2022-12-18T14:18:24.782Z,102720.00
2022-12-18T14:21:02.600Z,102714.00
2022-12-18T14:23:37.001Z,102706.00
2022-12-18T14:26:29.335Z,102711.00
2022-12-18T14:29:02.032Z,102703.00
2022-12-18T14:31:34.683Z,102710.00
2022-12-18T14:34:04.539Z,102699.00
2022-12-18T14:36:36.947Z,102696.00
2022-12-18T14:39:06.930Z,102686.00
2022-12-18T14:41:36.842Z,102689.00
2022-12-18T14:44:14.539Z,102678.00
2022-12-18T14:46:48.240Z,102675.00
2022-12-18T14:49:30.299Z,102678.00
2022-12-18T14:52:04.590Z,102663.00
2022-12-18T14:54:35.621Z,102658.00
2022-12-18T14:57:09.765Z,102643.00
2022-12-18T14:59:40.485Z,102644.00
2022-12-18T15:02:22.659Z,102641.00
2022-12-18T15:05:09.769Z,102647.00
2022-12-18T15:07:50.425Z,102639.00
2022-12-18T15:10:23.707Z,102645.00
2022-12-18T15:13:10.595Z,102652.00
2022-12-18T15:15:50.060Z,102668.00
2022-12-18T15:18:22.690Z,102674.00
2022-12-18T15:20:56.122Z,102679.00
2022-12-18T15:23:32.268Z,102700.00
2022-12-18T15:26:04.746Z,102697.00
2022-12-18T15:28:41.122Z,102700.00
2022-12-18T15:31:28.470Z,102700.00
2022-12-18T15:34:17.393Z,102712.00
2022-12-18T15:36:47.216Z,102718.00
2022-12-18T15:39:19.632Z,102713.00
2022-12-18T15:42:02.203Z,102708.00
2022-12-18T15:44:32.111Z,102697.00
2022-12-18T15:47:02.284Z,102697.00
2022-12-18T15:49:32.109Z,102700.00
2022-12-18T15:52:03.858Z,102697.00
2022-12-18T15:54:48.809Z,102696.00
2022-12-18T15:57:27.637Z,102693.00
2022-12-18T16:00:00.055Z,102694.00
2022-12-18T16:02:30.861Z,102697.00
2022-12-18T16:05:00.898Z,102696.00
2022-12-18T16:07:31.077Z,102693.00
2022-12-18T16:10:03.537Z,102683.00
2022-12-18T16:12:33.495Z,102687.00
2022-12-18T16:15:04.305Z,102678.00
2022-12-18T16:17:35.708Z,102676.00
2022-12-18T16:20:06.038Z,102665.00
2022-12-18T16:22:35.871Z,102667.00
2022-12-18T16:25:09.356Z,102675.00
2022-12-18T16:27:39.482Z,102666.00
2022-12-18T16:30:16.682Z,102652.00
2022-12-18T16:32:46.883Z,102649.00
2022-12-18T16:35:19.269Z,102649.00
2022-12-18T16:37:49.170Z,102646.00
2022-12-18T16:40:22.659Z,102659.00
2022-12-18T16:42:52.889Z,102661.00
2022-12-18T16:45:23.030Z,102658.00
2022-12-18T16:47:52.875Z,102655.00
2022-12-18T16:50:22.740Z,102664.00
2022-12-18T16:52:52.570Z,102659.00
2022-12-18T16:55:25.022Z,102665.00
2022-12-18T16:57:54.876Z,102656.00
2022-12-18T17:00:24.849Z,102650.00
2022-12-18T17:02:54.818Z,102635.00
2022-12-18T17:05:24.800Z,102632.00
2022-12-18T17:07:54.657Z,102635.00
2022-12-18T17:10:27.136Z,102644.00
2022-12-18T17:12:56.980Z,102629.00
2022-12-18T17:15:26.866Z,102642.00
2022-12-18T17:17:56.737Z,102640.00
2022-12-18T17:20:26.711Z,102647.00
2022-12-18T17:22:56.635Z,102651.00
2022-12-18T17:25:30.143Z,102653.00
2022-12-18T17:27:59.975Z,102654.00
2022-12-18T17:30:29.826Z,102649.00
2022-12-18T17:32:59.683Z,102648.00
2022-12-18T17:35:29.537Z,102654.00
2022-12-18T17:37:59.383Z,102664.00
2022-12-18T17:40:31.904Z,102660.00
2022-12-18T17:43:04.291Z,102650.00
2022-12-18T17:45:34.134Z,102649.00
2022-12-18T17:48:03.995Z,102655.00
2022-12-18T17:50:35.316Z,102653.00
2022-12-18T17:53:06.132Z,102653.00
2022-12-18T17:55:38.603Z,102647.00
2022-12-18T17:58:08.494Z,102651.00
2022-12-18T18:00:38.322Z,102647.00
2022-12-18T18:03:08.280Z,102650.00
2022-12-18T18:05:38.198Z,102640.00
2022-12-18T18:08:09.026Z,102643.00
2022-12-18T18:10:42.645Z,102625.00
2022-12-18T18:13:39.735Z,102620.00
2022-12-18T18:16:13.351Z,102614.00
2022-12-18T18:18:43.231Z,102610.00
2022-12-18T18:21:13.113Z,102605.00
2022-12-18T18:23:44.848Z,102597.00
2022-12-18T18:26:19.186Z,102603.00
2022-12-18T18:28:49.063Z,102590.00
2022-12-18T18:31:19.065Z,102578.00
2022-12-18T18:33:49.821Z,102589.00
2022-12-18T18:36:19.653Z,102588.00
2022-12-18T18:38:49.549Z,102590.00
2022-12-18T18:41:24.632Z,102585.00
2022-12-18T18:43:58.476Z,102587.00
2022-12-18T18:46:29.055Z,102580.00
2022-12-18T18:48:59.093Z,102579.00
2022-12-18T18:51:34.627Z,102569.00
2022-12-18T18:54:05.217Z,102560.00
2022-12-18T18:59:31.562Z,102571.00
2022-12-18T19:02:04.686Z,102551.00
2022-12-18T19:04:40.926Z,102546.00
2022-12-18T19:07:23.869Z,102541.00
2022-12-18T19:10:04.686Z,102528.00
2022-12-18T19:13:05.496Z,102533.00
2022-12-18T19:15:36.906Z,102540.00
2022-12-18T19:18:07.819Z,102531.00
2022-12-18T19:20:37.897Z,102534.00
2022-12-18T19:23:07.773Z,102538.00
2022-12-18T19:25:42.085Z,102512.00
2022-12-18T19:28:22.039Z,102520.00
2022-12-18T19:30:58.804Z,102517.00
2022-12-18T19:33:46.123Z,102528.00
2022-12-18T19:36:22.220Z,102517.00
2022-12-18T19:38:54.558Z,102507.00
2022-12-18T19:41:26.108Z,102495.00
2022-12-18T19:44:07.635Z,102495.00
2022-12-18T19:46:38.878Z,102500.00
2022-12-18T19:49:17.272Z,102495.00
2022-12-18T19:51:49.936Z,102507.00
2022-12-18T19:54:20.592Z,102506.00
2022-12-18T19:56:52.949Z,102510.00
2022-12-18T19:59:25.992Z,102523.00
2022-12-18T20:01:56.145Z,102514.00
2022-12-18T20:04:26.198Z,102502.00
2022-12-18T20:06:57.069Z,102500.00
2022-12-18T20:09:27.011Z,102505.00
2022-12-18T20:11:57.279Z,102503.00
2022-12-18T20:14:29.918Z,102499.00
2022-12-18T20:16:59.861Z,102500.00
2022-12-18T20:19:30.543Z,102484.00
2022-12-18T20:22:00.939Z,102484.00
2022-12-18T20:24:30.822Z,102491.00
2022-12-18T20:27:00.858Z,102482.00
2022-12-18T20:29:33.358Z,102484.00
2022-12-18T20:32:03.387Z,102487.00
2022-12-18T20:34:33.339Z,102471.00
2022-12-18T20:37:03.977Z,102473.00
2022-12-18T20:39:33.855Z,102466.00
2022-12-18T20:42:04.722Z,102466.00
2022-12-18T20:44:37.302Z,102467.00
2022-12-18T20:47:08.444Z,102458.00
2022-12-18T20:49:40.111Z,102471.00
2022-12-18T20:52:15.159Z,102472.00
2022-12-18T20:54:45.072Z,102471.00
2022-12-18T20:57:14.974Z,102469.00
2022-12-18T20:59:48.433Z,102477.00
2022-12-18T21:02:18.943Z,102463.00
2022-12-18T21:04:49.149Z,102469.00
2022-12-18T21:07:19.071Z,102467.00
2022-12-18T21:09:48.895Z,102475.00
2022-12-18T21:12:40.655Z,102471.00
2022-12-18T21:15:28.971Z,102463.00
2022-12-18T21:17:58.978Z,102448.00
2022-12-18T21:20:29.015Z,102459.00
2022-12-18T21:23:15.991Z,102456.00
2022-12-18T21:25:49.528Z,102458.00
2022-12-18T21:28:25.369Z,102455.00
2022-12-18T21:30:57.832Z,102451.00
2022-12-18T21:33:27.715Z,102443.00
2022-12-18T21:35:57.564Z,102448.00
2022-12-18T21:38:27.483Z,102445.00
2022-12-18T21:40:57.549Z,102439.00
2022-12-18T21:43:40.155Z,102435.00
2022-12-18T21:46:12.812Z,102421.00
2022-12-18T21:48:43.475Z,102423.00
2022-12-18T21:51:13.344Z,102419.00
2022-12-18T21:53:43.206Z,102409.00
2022-12-18T21:56:13.185Z,102407.00
2022-12-18T21:58:56.852Z,102421.00
2022-12-18T22:01:32.694Z,102424.00
2022-12-18T22:04:07.948Z,102429.00
2022-12-18T22:06:37.997Z,102425.00
2022-12-18T22:09:08.982Z,102413.00
2022-12-18T22:11:39.129Z,102426.00
2022-12-18T22:14:09.450Z,102418.00
2022-12-18T22:16:42.150Z,102428.00
2022-12-18T22:19:14.183Z,102435.00
2022-12-18T22:21:47.111Z,102418.00
2022-12-18T22:24:19.850Z,102414.00
2022-12-18T22:26:50.612Z,102411.00
2022-12-18T22:29:35.852Z,102390.00
2022-12-18T22:32:10.730Z,102402.00
2022-12-18T22:34:42.537Z,102387.00
2022-12-18T22:37:13.316Z,102404.00
2022-12-18T22:39:43.405Z,102386.00
2022-12-18T22:42:13.246Z,102392.00
2022-12-18T22:44:43.115Z,102381.00
2022-12-18T22:47:15.786Z,102381.00
2022-12-18T22:49:45.765Z,102358.00
2022-12-18T22:52:15.583Z,102358.00
2022-12-18T22:54:47.932Z,102358.00
2022-12-18T22:57:17.988Z,102337.00
2022-12-18T22:59:48.108Z,102349.00
2022-12-18T23:02:20.904Z,102340.00
2022-12-18T23:04:51.223Z,102331.00
2022-12-18T23:07:21.426Z,102332.00
2022-12-18T23:09:57.404Z,102324.00
2022-12-18T23:12:31.016Z,102325.00
2022-12-18T23:15:02.796Z,102319.00
2022-12-18T23:17:35.233Z,102317.00
2022-12-18T23:20:05.074Z,102312.00
2022-12-18T23:22:34.902Z,102308.00
2022-12-18T23:25:04.755Z,102300.00
2022-12-18T23:27:37.388Z,102294.00
2022-12-18T23:30:08.731Z,102288.00
2022-12-18T23:32:41.669Z,102286.00
2022-12-18T23:35:12.893Z,102294.00
2022-12-18T23:38:01.042Z,102294.00
2022-12-18T23:40:32.035Z,102282.00
2022-12-18T23:43:02.729Z,102277.00
2022-12-18T23:45:32.594Z,102291.00
2022-12-18T23:48:04.999Z,102280.00
2022-12-18T23:50:37.844Z,102264.00
2022-12-18T23:53:07.789Z,102262.00
2022-12-18T23:55:42.500Z,102245.00
2022-12-18T23:58:19.955Z,102222.00
